sensor_id;sensor_type;location;lat;lon;timestamp;P1;durP1;ratioP1;P2;durP2;ratioP2
18659;SDS011;9459;50.254;19.014;2023-02-02T00:01:28;3.72;;;1.98;;
18659;SDS011;9459;50.254;19.014;2023-02-02T00:03:57;2.85;;;1.70;;
18659;SDS011;9459;50.254;19.014;2023-02-02T00:06:27;4.15;;;2.00;;
18659;SDS011;9459;50.254;19.014;2023-02-02T00:09:01;3.07;;;2.07;;
18659;SDS011;9459;50.254;19.014;2023-02-02T00:11:37;2.92;;;2.15;;
18659;SDS011;9459;50.254;19.014;2023-02-02T00:14:13;3.50;;;2.05;;
18659;SDS011;9459;50.254;19.014;2023-02-02T00:16:59;3.55;;;2.28;;
18659;SDS011;9459;50.254;19.014;2023-02-02T00:19:34;4.13;;;2.28;;
18659;SDS011;9459;50.254;19.014;2023-02-02T00:22:09;4.05;;;2.90;;
18659;SDS011;9459;50.254;19.014;2023-02-02T00:24:51;3.75;;;2.97;;
18659;SDS011;9459;50.254;19.014;2023-02-02T00:27:36;3.60;;;2.78;;
18659;SDS011;9459;50.254;19.014;2023-02-02T00:30:05;4.60;;;3.00;;
18659;SDS011;9459;50.254;19.014;2023-02-02T00:32:34;3.58;;;3.03;;
18659;SDS011;9459;50.254;19.014;2023-02-02T00:35:03;4.30;;;3.75;;
18659;SDS011;9459;50.254;19.014;2023-02-02T00:37:32;5.93;;;3.70;;
18659;SDS011;9459;50.254;19.014;2023-02-02T00:40:02;5.13;;;3.55;;
18659;SDS011;9459;50.254;19.014;2023-02-02T00:42:32;5.82;;;3.80;;
18659;SDS011;9459;50.254;19.014;2023-02-02T00:45:01;6.03;;;4.43;;
18659;SDS011;9459;50.254;19.014;2023-02-02T00:47:46;5.10;;;4.05;;
18659;SDS011;9459;50.254;19.014;2023-02-02T00:50:16;4.65;;;3.78;;
18659;SDS011;9459;50.254;19.014;2023-02-02T00:52:46;5.47;;;4.00;;
18659;SDS011;9459;50.254;19.014;2023-02-02T00:55:17;6.03;;;3.97;;
18659;SDS011;9459;50.254;19.014;2023-02-02T00:57:46;5.10;;;4.07;;
18659;SDS011;9459;50.254;19.014;2023-02-02T01:00:15;5.85;;;4.32;;
18659;SDS011;9459;50.254;19.014;2023-02-02T01:02:45;6.97;;;4.38;;
18659;SDS011;9459;50.254;19.014;2023-02-02T01:05:13;6.15;;;3.88;;
18659;SDS011;9459;50.254;19.014;2023-02-02T01:07:42;6.10;;;3.92;;
18659;SDS011;9459;50.254;19.014;2023-02-02T01:10:12;7.22;;;4.07;;
18659;SDS011;9459;50.254;19.014;2023-02-02T01:12:43;4.40;;;3.10;;
18659;SDS011;9459;50.254;19.014;2023-02-02T01:15:12;6.05;;;3.58;;
18659;SDS011;9459;50.254;19.014;2023-02-02T01:17:41;7.88;;;3.47;;
18659;SDS011;9459;50.254;19.014;2023-02-02T01:20:10;5.75;;;3.78;;
18659;SDS011;9459;50.254;19.014;2023-02-02T01:22:44;4.65;;;3.35;;
18659;SDS011;9459;50.254;19.014;2023-02-02T01:25:13;6.50;;;3.67;;
18659;SDS011;9459;50.254;19.014;2023-02-02T01:27:43;6.03;;;3.15;;
18659;SDS011;9459;50.254;19.014;2023-02-02T01:30:12;5.28;;;3.80;;
18659;SDS011;9459;50.254;19.014;2023-02-02T01:32:41;7.18;;;3.47;;
18659;SDS011;9459;50.254;19.014;2023-02-02T01:35:09;4.88;;;3.25;;
18659;SDS011;9459;50.254;19.014;2023-02-02T01:37:38;7.22;;;3.97;;
18659;SDS011;9459;50.254;19.014;2023-02-02T01:40:07;7.10;;;3.90;;
18659;SDS011;9459;50.254;19.014;2023-02-02T01:42:37;5.10;;;3.23;;
18659;SDS011;9459;50.254;19.014;2023-02-02T01:45:15;8.75;;;4.05;;
18659;SDS011;9459;50.254;19.014;2023-02-02T01:47:48;9.23;;;4.03;;
18659;SDS011;9459;50.254;19.014;2023-02-02T01:50:20;8.13;;;4.13;;
18659;SDS011;9459;50.254;19.014;2023-02-02T01:52:50;9.30;;;4.30;;
18659;SDS011;9459;50.254;19.014;2023-02-02T01:55:20;9.25;;;4.53;;
18659;SDS011;9459;50.254;19.014;2023-02-02T01:57:51;9.88;;;4.60;;
18659;SDS011;9459;50.254;19.014;2023-02-02T02:00:23;13.50;;;4.82;;
18659;SDS011;9459;50.254;19.014;2023-02-02T02:02:55;14.50;;;4.50;;
18659;SDS011;9459;50.254;19.014;2023-02-02T02:05:28;9.15;;;4.20;;
18659;SDS011;9459;50.254;19.014;2023-02-02T02:08:01;7.72;;;4.00;;
18659;SDS011;9459;50.254;19.014;2023-02-02T02:10:31;9.13;;;4.28;;
18659;SDS011;9459;50.254;19.014;2023-02-02T02:13:01;12.88;;;4.07;;
18659;SDS011;9459;50.254;19.014;2023-02-02T02:15:31;12.15;;;4.35;;
18659;SDS011;9459;50.254;19.014;2023-02-02T02:18:39;9.23;;;3.78;;
18659;SDS011;9459;50.254;19.014;2023-02-02T02:21:22;10.27;;;4.22;;
18659;SDS011;9459;50.254;19.014;2023-02-02T02:28:00;10.63;;;3.97;;
18659;SDS011;9459;50.254;19.014;2023-02-02T02:31:15;9.85;;;4.28;;
18659;SDS011;9459;50.254;19.014;2023-02-02T02:33:54;12.88;;;4.90;;
18659;SDS011;9459;50.254;19.014;2023-02-02T02:36:26;13.10;;;5.32;;
18659;SDS011;9459;50.254;19.014;2023-02-02T02:39:01;11.73;;;4.43;;
18659;SDS011;9459;50.254;19.014;2023-02-02T02:41:40;10.65;;;4.40;;
18659;SDS011;9459;50.254;19.014;2023-02-02T02:44:11;8.93;;;4.10;;
18659;SDS011;9459;50.254;19.014;2023-02-02T02:46:41;7.00;;;4.18;;
18659;SDS011;9459;50.254;19.014;2023-02-02T02:49:11;8.70;;;5.03;;
18659;SDS011;9459;50.254;19.014;2023-02-02T02:51:43;6.80;;;3.72;;
18659;SDS011;9459;50.254;19.014;2023-02-02T02:54:14;11.38;;;4.00;;
18659;SDS011;9459;50.254;19.014;2023-02-02T02:56:52;9.45;;;4.85;;
18659;SDS011;9459;50.254;19.014;2023-02-02T02:59:33;8.65;;;4.03;;
18659;SDS011;9459;50.254;19.014;2023-02-02T03:02:11;6.95;;;3.63;;
18659;SDS011;9459;50.254;19.014;2023-02-02T03:04:50;5.68;;;3.40;;
18659;SDS011;9459;50.254;19.014;2023-02-02T03:07:25;5.88;;;3.17;;
18659;SDS011;9459;50.254;19.014;2023-02-02T03:09:56;9.75;;;3.60;;
18659;SDS011;9459;50.254;19.014;2023-02-02T03:12:25;8.13;;;3.78;;
18659;SDS011;9459;50.254;19.014;2023-02-02T03:14:54;7.85;;;2.92;;
18659;SDS011;9459;50.254;19.014;2023-02-02T03:17:22;4.60;;;2.80;;
18659;SDS011;9459;50.254;19.014;2023-02-02T03:19:52;6.07;;;2.45;;
18659;SDS011;9459;50.254;19.014;2023-02-02T03:22:21;8.95;;;3.88;;
18659;SDS011;9459;50.254;19.014;2023-02-02T03:24:49;9.23;;;3.00;;
18659;SDS011;9459;50.254;19.014;2023-02-02T03:27:18;8.23;;;3.22;;
18659;SDS011;9459;50.254;19.014;2023-02-02T03:29:47;6.78;;;2.53;;
18659;SDS011;9459;50.254;19.014;2023-02-02T03:32:15;7.65;;;2.72;;
18659;SDS011;9459;50.254;19.014;2023-02-02T03:34:44;7.47;;;2.50;;
18659;SDS011;9459;50.254;19.014;2023-02-02T03:37:14;11.27;;;3.03;;
18659;SDS011;9459;50.254;19.014;2023-02-02T03:39:42;6.93;;;3.03;;
18659;SDS011;9459;50.254;19.014;2023-02-02T03:42:11;9.80;;;2.63;;
18659;SDS011;9459;50.254;19.014;2023-02-02T03:44:39;6.93;;;3.00;;
18659;SDS011;9459;50.254;19.014;2023-02-02T03:47:08;12.68;;;2.83;;
18659;SDS011;9459;50.254;19.014;2023-02-02T03:49:36;9.25;;;3.03;;
18659;SDS011;9459;50.254;19.014;2023-02-02T03:52:05;8.13;;;3.17;;
18659;SDS011;9459;50.254;19.014;2023-02-02T03:54:35;8.13;;;2.58;;
18659;SDS011;9459;50.254;19.014;2023-02-02T03:57:03;15.32;;;3.75;;
18659;SDS011;9459;50.254;19.014;2023-02-02T03:59:31;7.90;;;2.65;;
18659;SDS011;9459;50.254;19.014;2023-02-02T04:02:00;7.90;;;2.53;;
18659;SDS011;9459;50.254;19.014;2023-02-02T04:04:28;9.20;;;3.50;;
18659;SDS011;9459;50.254;19.014;2023-02-02T04:06:57;8.68;;;2.97;;
18659;SDS011;9459;50.254;19.014;2023-02-02T04:09:27;12.27;;;3.95;;
18659;SDS011;9459;50.254;19.014;2023-02-02T04:11:57;14.65;;;4.20;;
18659;SDS011;9459;50.254;19.014;2023-02-02T04:14:25;12.82;;;6.30;;
18659;SDS011;9459;50.254;19.014;2023-02-02T04:16:54;19.75;;;9.88;;
18659;SDS011;9459;50.254;19.014;2023-02-02T04:19:22;11.35;;;4.68;;
18659;SDS011;9459;50.254;19.014;2023-02-02T04:21:52;15.20;;;5.80;;
18659;SDS011;9459;50.254;19.014;2023-02-02T04:24:20;14.13;;;5.68;;
18659;SDS011;9459;50.254;19.014;2023-02-02T04:26:49;14.23;;;6.47;;
18659;SDS011;9459;50.254;19.014;2023-02-02T04:29:19;18.60;;;8.88;;
18659;SDS011;9459;50.254;19.014;2023-02-02T04:31:48;15.32;;;7.90;;
18659;SDS011;9459;50.254;19.014;2023-02-02T04:34:16;14.05;;;5.20;;
18659;SDS011;9459;50.254;19.014;2023-02-02T04:36:45;11.05;;;4.85;;
18659;SDS011;9459;50.254;19.014;2023-02-02T04:39:13;12.00;;;3.33;;
18659;SDS011;9459;50.254;19.014;2023-02-02T04:41:41;12.50;;;3.47;;
18659;SDS011;9459;50.254;19.014;2023-02-02T04:44:12;14.02;;;4.18;;
18659;SDS011;9459;50.254;19.014;2023-02-02T04:46:43;10.75;;;4.13;;
18659;SDS011;9459;50.254;19.014;2023-02-02T04:49:11;12.93;;;5.40;;
18659;SDS011;9459;50.254;19.014;2023-02-02T04:51:40;11.45;;;4.05;;
18659;SDS011;9459;50.254;19.014;2023-02-02T04:54:09;10.63;;;3.65;;
18659;SDS011;9459;50.254;19.014;2023-02-02T04:56:37;9.98;;;2.80;;
18659;SDS011;9459;50.254;19.014;2023-02-02T04:59:05;10.27;;;2.58;;
18659;SDS011;9459;50.254;19.014;2023-02-02T05:01:34;10.40;;;3.63;;
18659;SDS011;9459;50.254;19.014;2023-02-02T05:04:04;8.98;;;3.15;;
18659;SDS011;9459;50.254;19.014;2023-02-02T05:06:33;10.50;;;3.25;;
18659;SDS011;9459;50.254;19.014;2023-02-02T05:09:01;7.68;;;2.50;;
18659;SDS011;9459;50.254;19.014;2023-02-02T05:11:30;7.47;;;2.55;;
18659;SDS011;9459;50.254;19.014;2023-02-02T05:13:58;9.75;;;2.85;;
18659;SDS011;9459;50.254;19.014;2023-02-02T05:16:26;7.40;;;2.28;;
18659;SDS011;9459;50.254;19.014;2023-02-02T05:18:56;12.73;;;3.17;;
18659;SDS011;9459;50.254;19.014;2023-02-02T05:21:27;10.77;;;2.63;;
18659;SDS011;9459;50.254;19.014;2023-02-02T05:23:55;15.43;;;4.78;;
18659;SDS011;9459;50.254;19.014;2023-02-02T05:26:25;10.18;;;3.75;;
18659;SDS011;9459;50.254;19.014;2023-02-02T05:28:55;15.68;;;5.82;;
18659;SDS011;9459;50.254;19.014;2023-02-02T05:31:23;10.23;;;3.58;;
18659;SDS011;9459;50.254;19.014;2023-02-02T05:33:52;9.25;;;3.50;;
18659;SDS011;9459;50.254;19.014;2023-02-02T05:36:20;8.45;;;2.75;;
18659;SDS011;9459;50.254;19.014;2023-02-02T05:38:50;12.65;;;3.45;;
18659;SDS011;9459;50.254;19.014;2023-02-02T05:41:19;5.55;;;2.28;;
18659;SDS011;9459;50.254;19.014;2023-02-02T05:43:47;10.73;;;2.22;;
18659;SDS011;9459;50.254;19.014;2023-02-02T05:46:15;13.02;;;2.97;;
18659;SDS011;9459;50.254;19.014;2023-02-02T05:48:44;10.70;;;2.78;;
18659;SDS011;9459;50.254;19.014;2023-02-02T05:51:14;9.20;;;2.53;;
18659;SDS011;9459;50.254;19.014;2023-02-02T05:53:45;12.40;;;5.10;;
18659;SDS011;9459;50.254;19.014;2023-02-02T05:56:14;13.25;;;4.38;;
18659;SDS011;9459;50.254;19.014;2023-02-02T05:58:43;11.05;;;5.18;;
18659;SDS011;9459;50.254;19.014;2023-02-02T06:01:13;8.40;;;3.20;;
18659;SDS011;9459;50.254;19.014;2023-02-02T06:03:42;9.13;;;3.25;;
18659;SDS011;9459;50.254;19.014;2023-02-02T06:06:11;9.15;;;3.13;;
18659;SDS011;9459;50.254;19.014;2023-02-02T06:08:40;9.30;;;2.70;;
18659;SDS011;9459;50.254;19.014;2023-02-02T06:11:08;12.60;;;2.85;;
18659;SDS011;9459;50.254;19.014;2023-02-02T06:13:39;12.45;;;3.08;;
18659;SDS011;9459;50.254;19.014;2023-02-02T06:16:08;8.30;;;2.90;;
18659;SDS011;9459;50.254;19.014;2023-02-02T06:18:37;20.08;;;3.58;;
18659;SDS011;9459;50.254;19.014;2023-02-02T06:21:05;13.65;;;2.65;;
18659;SDS011;9459;50.254;19.014;2023-02-02T06:23:34;11.20;;;3.38;;
18659;SDS011;9459;50.254;19.014;2023-02-02T06:26:02;9.30;;;3.33;;
18659;SDS011;9459;50.254;19.014;2023-02-02T06:28:34;13.52;;;3.92;;
18659;SDS011;9459;50.254;19.014;2023-02-02T06:31:04;15.85;;;3.90;;
18659;SDS011;9459;50.254;19.014;2023-02-02T06:33:33;12.25;;;4.47;;
18659;SDS011;9459;50.254;19.014;2023-02-02T06:36:02;12.60;;;4.72;;
18659;SDS011;9459;50.254;19.014;2023-02-02T06:38:32;14.52;;;5.60;;
18659;SDS011;9459;50.254;19.014;2023-02-02T06:41:01;11.38;;;5.30;;
18659;SDS011;9459;50.254;19.014;2023-02-02T06:43:30;14.82;;;5.22;;
18659;SDS011;9459;50.254;19.014;2023-02-02T06:45:58;14.82;;;6.28;;
18659;SDS011;9459;50.254;19.014;2023-02-02T06:48:28;12.48;;;5.30;;
18659;SDS011;9459;50.254;19.014;2023-02-02T06:50:57;14.32;;;4.43;;
18659;SDS011;9459;50.254;19.014;2023-02-02T06:53:27;13.38;;;4.80;;
18659;SDS011;9459;50.254;19.014;2023-02-02T06:55:56;15.50;;;5.90;;
18659;SDS011;9459;50.254;19.014;2023-02-02T06:58:26;13.20;;;5.18;;
18659;SDS011;9459;50.254;19.014;2023-02-02T07:00:59;12.35;;;5.63;;
18659;SDS011;9459;50.254;19.014;2023-02-02T07:03:31;10.52;;;4.65;;
18659;SDS011;9459;50.254;19.014;2023-02-02T07:06:08;11.30;;;5.13;;
18659;SDS011;9459;50.254;19.014;2023-02-02T07:08:38;13.10;;;5.68;;
18659;SDS011;9459;50.254;19.014;2023-02-02T07:11:06;17.45;;;4.70;;
18659;SDS011;9459;50.254;19.014;2023-02-02T07:13:42;13.68;;;5.00;;
18659;SDS011;9459;50.254;19.014;2023-02-02T07:16:10;17.15;;;4.70;;
18659;SDS011;9459;50.254;19.014;2023-02-02T07:18:41;13.85;;;4.45;;
18659;SDS011;9459;50.254;19.014;2023-02-02T07:21:14;13.38;;;4.45;;
18659;SDS011;9459;50.254;19.014;2023-02-02T07:23:45;16.15;;;4.85;;
18659;SDS011;9459;50.254;19.014;2023-02-02T07:26:13;12.27;;;4.53;;
18659;SDS011;9459;50.254;19.014;2023-02-02T07:28:43;10.95;;;4.28;;
18659;SDS011;9459;50.254;19.014;2023-02-02T07:31:12;13.70;;;4.75;;
18659;SDS011;9459;50.254;19.014;2023-02-02T07:33:44;8.90;;;3.88;;
18659;SDS011;9459;50.254;19.014;2023-02-02T07:36:14;11.88;;;4.38;;
18659;SDS011;9459;50.254;19.014;2023-02-02T07:38:44;12.63;;;5.15;;
18659;SDS011;9459;50.254;19.014;2023-02-02T07:41:13;16.95;;;5.32;;
18659;SDS011;9459;50.254;19.014;2023-02-02T07:43:45;13.82;;;4.82;;
18659;SDS011;9459;50.254;19.014;2023-02-02T07:46:14;11.07;;;4.95;;
18659;SDS011;9459;50.254;19.014;2023-02-02T07:48:45;11.37;;;5.20;;
18659;SDS011;9459;50.254;19.014;2023-02-02T07:51:14;10.63;;;5.90;;
18659;SDS011;9459;50.254;19.014;2023-02-02T07:53:44;13.63;;;5.10;;
18659;SDS011;9459;50.254;19.014;2023-02-02T07:56:14;12.43;;;5.13;;
18659;SDS011;9459;50.254;19.014;2023-02-02T07:58:44;13.33;;;5.77;;
18659;SDS011;9459;50.254;19.014;2023-02-02T08:01:14;17.80;;;6.68;;
18659;SDS011;9459;50.254;19.014;2023-02-02T08:03:43;13.13;;;6.00;;
18659;SDS011;9459;50.254;19.014;2023-02-02T08:06:14;16.02;;;6.35;;
18659;SDS011;9459;50.254;19.014;2023-02-02T08:08:44;15.30;;;7.07;;
18659;SDS011;9459;50.254;19.014;2023-02-02T08:11:14;16.88;;;6.80;;
18659;SDS011;9459;50.254;19.014;2023-02-02T08:13:43;15.03;;;5.93;;
18659;SDS011;9459;50.254;19.014;2023-02-02T08:16:15;15.05;;;6.47;;
18659;SDS011;9459;50.254;19.014;2023-02-02T08:18:43;15.38;;;6.28;;
18659;SDS011;9459;50.254;19.014;2023-02-02T08:21:13;12.95;;;6.15;;
18659;SDS011;9459;50.254;19.014;2023-02-02T08:23:43;16.95;;;5.63;;
18659;SDS011;9459;50.254;19.014;2023-02-02T08:26:12;16.90;;;6.30;;
18659;SDS011;9459;50.254;19.014;2023-02-02T08:28:43;15.93;;;6.50;;
18659;SDS011;9459;50.254;19.014;2023-02-02T08:31:15;15.30;;;6.47;;
18659;SDS011;9459;50.254;19.014;2023-02-02T08:33:45;14.63;;;5.45;;
18659;SDS011;9459;50.254;19.014;2023-02-02T08:36:16;16.42;;;5.38;;
18659;SDS011;9459;50.254;19.014;2023-02-02T08:38:46;17.70;;;6.05;;
18659;SDS011;9459;50.254;19.014;2023-02-02T08:41:15;14.07;;;6.20;;
18659;SDS011;9459;50.254;19.014;2023-02-02T08:43:44;12.07;;;5.18;;
18659;SDS011;9459;50.254;19.014;2023-02-02T08:46:13;16.90;;;7.03;;
18659;SDS011;9459;50.254;19.014;2023-02-02T08:48:44;17.38;;;7.68;;
18659;SDS011;9459;50.254;19.014;2023-02-02T08:51:13;16.85;;;7.03;;
18659;SDS011;9459;50.254;19.014;2023-02-02T08:53:44;14.82;;;5.35;;
18659;SDS011;9459;50.254;19.014;2023-02-02T08:56:14;12.25;;;4.10;;
18659;SDS011;9459;50.254;19.014;2023-02-02T08:58:45;11.73;;;5.20;;
18659;SDS011;9459;50.254;19.014;2023-02-02T09:01:15;10.73;;;4.30;;
18659;SDS011;9459;50.254;19.014;2023-02-02T09:03:45;9.82;;;3.60;;
18659;SDS011;9459;50.254;19.014;2023-02-02T09:06:16;12.20;;;3.63;;
18659;SDS011;9459;50.254;19.014;2023-02-02T09:08:47;12.13;;;4.47;;
18659;SDS011;9459;50.254;19.014;2023-02-02T09:11:16;14.35;;;6.82;;
18659;SDS011;9459;50.254;19.014;2023-02-02T09:13:46;10.38;;;4.07;;
18659;SDS011;9459;50.254;19.014;2023-02-02T09:16:15;9.68;;;2.85;;
18659;SDS011;9459;50.254;19.014;2023-02-02T09:18:45;6.18;;;3.20;;
18659;SDS011;9459;50.254;19.014;2023-02-02T09:21:15;8.90;;;4.88;;
18659;SDS011;9459;50.254;19.014;2023-02-02T09:23:46;10.15;;;5.35;;
18659;SDS011;9459;50.254;19.014;2023-02-02T09:26:16;11.07;;;5.15;;
18659;SDS011;9459;50.254;19.014;2023-02-02T09:28:46;11.53;;;4.90;;
18659;SDS011;9459;50.254;19.014;2023-02-02T09:31:16;11.27;;;4.72;;
18659;SDS011;9459;50.254;19.014;2023-02-02T09:33:45;11.63;;;4.47;;
18659;SDS011;9459;50.254;19.014;2023-02-02T09:36:15;9.50;;;3.53;;
18659;SDS011;9459;50.254;19.014;2023-02-02T09:38:46;8.60;;;4.25;;
18659;SDS011;9459;50.254;19.014;2023-02-02T09:44:13;11.68;;;6.97;;
18659;SDS011;9459;50.254;19.014;2023-02-02T09:46:48;14.75;;;8.52;;
18659;SDS011;9459;50.254;19.014;2023-02-02T09:49:22;21.77;;;11.00;;
18659;SDS011;9459;50.254;19.014;2023-02-02T09:51:57;13.23;;;7.22;;
18659;SDS011;9459;50.254;19.014;2023-02-02T09:54:27;11.68;;;6.05;;
18659;SDS011;9459;50.254;19.014;2023-02-02T09:57:02;14.52;;;6.38;;
18659;SDS011;9459;50.254;19.014;2023-02-02T09:59:37;12.13;;;6.57;;
18659;SDS011;9459;50.254;19.014;2023-02-02T10:02:11;15.27;;;6.57;;
18659;SDS011;9459;50.254;19.014;2023-02-02T10:04:42;14.80;;;6.90;;
18659;SDS011;9459;50.254;19.014;2023-02-02T10:07:16;14.13;;;7.40;;
18659;SDS011;9459;50.254;19.014;2023-02-02T10:09:47;15.25;;;6.57;;
18659;SDS011;9459;50.254;19.014;2023-02-02T10:12:21;16.42;;;7.63;;
18659;SDS011;9459;50.254;19.014;2023-02-02T10:14:58;21.38;;;11.65;;
18659;SDS011;9459;50.254;19.014;2023-02-02T10:17:36;11.60;;;6.05;;
18659;SDS011;9459;50.254;19.014;2023-02-02T10:20:13;18.55;;;8.18;;
18659;SDS011;9459;50.254;19.014;2023-02-02T10:22:46;9.13;;;5.18;;
18659;SDS011;9459;50.254;19.014;2023-02-02T10:25:15;9.68;;;5.07;;
18659;SDS011;9459;50.254;19.014;2023-02-02T10:27:45;10.77;;;5.97;;
18659;SDS011;9459;50.254;19.014;2023-02-02T10:30:21;12.55;;;5.97;;
18659;SDS011;9459;50.254;19.014;2023-02-02T10:32:54;18.92;;;8.45;;
18659;SDS011;9459;50.254;19.014;2023-02-02T10:35:32;12.10;;;6.82;;
18659;SDS011;9459;50.254;19.014;2023-02-02T10:38:06;8.25;;;4.18;;
18659;SDS011;9459;50.254;19.014;2023-02-02T10:40:41;13.30;;;5.70;;
18659;SDS011;9459;50.254;19.014;2023-02-02T10:43:21;14.27;;;5.05;;
18659;SDS011;9459;50.254;19.014;2023-02-02T10:46:14;9.48;;;3.92;;
18659;SDS011;9459;50.254;19.014;2023-02-02T10:48:48;11.05;;;4.53;;
18659;SDS011;9459;50.254;19.014;2023-02-02T10:51:22;7.28;;;4.40;;
18659;SDS011;9459;50.254;19.014;2023-02-02T10:53:55;9.95;;;4.65;;
18659;SDS011;9459;50.254;19.014;2023-02-02T10:56:27;8.25;;;4.47;;
18659;SDS011;9459;50.254;19.014;2023-02-02T10:58:58;11.27;;;5.07;;
18659;SDS011;9459;50.254;19.014;2023-02-02T11:01:29;14.25;;;4.43;;
18659;SDS011;9459;50.254;19.014;2023-02-02T11:03:58;9.15;;;4.72;;
18659;SDS011;9459;50.254;19.014;2023-02-02T11:06:43;7.15;;;3.25;;
18659;SDS011;9459;50.254;19.014;2023-02-02T11:09:20;8.02;;;3.33;;
18659;SDS011;9459;50.254;19.014;2023-02-02T11:11:50;11.27;;;4.70;;
18659;SDS011;9459;50.254;19.014;2023-02-02T11:14:26;11.23;;;5.90;;
18659;SDS011;9459;50.254;19.014;2023-02-02T11:17:02;15.07;;;7.32;;
18659;SDS011;9459;50.254;19.014;2023-02-02T11:19:32;13.32;;;5.20;;
18659;SDS011;9459;50.254;19.014;2023-02-02T11:22:02;9.40;;;4.60;;
18659;SDS011;9459;50.254;19.014;2023-02-02T11:24:39;12.73;;;6.60;;
18659;SDS011;9459;50.254;19.014;2023-02-02T11:27:12;7.07;;;3.67;;
18659;SDS011;9459;50.254;19.014;2023-02-02T11:29:42;7.78;;;4.40;;
18659;SDS011;9459;50.254;19.014;2023-02-02T11:32:25;7.68;;;5.10;;
18659;SDS011;9459;50.254;19.014;2023-02-02T11:37:55;9.52;;;5.35;;
18659;SDS011;9459;50.254;19.014;2023-02-02T11:40:30;14.60;;;8.27;;
18659;SDS011;9459;50.254;19.014;2023-02-02T11:43:01;11.77;;;8.18;;
18659;SDS011;9459;50.254;19.014;2023-02-02T11:45:34;13.27;;;8.20;;
18659;SDS011;9459;50.254;19.014;2023-02-02T11:48:05;12.60;;;6.45;;
18659;SDS011;9459;50.254;19.014;2023-02-02T11:50:37;10.57;;;6.07;;
18659;SDS011;9459;50.254;19.014;2023-02-02T11:53:05;9.15;;;4.70;;
18659;SDS011;9459;50.254;19.014;2023-02-02T11:55:50;12.60;;;6.28;;
18659;SDS011;9459;50.254;19.014;2023-02-02T11:58:20;9.07;;;5.28;;
18659;SDS011;9459;50.254;19.014;2023-02-02T12:00:55;5.93;;;3.38;;
18659;SDS011;9459;50.254;19.014;2023-02-02T12:03:27;7.68;;;3.03;;
18659;SDS011;9459;50.254;19.014;2023-02-02T12:06:00;8.48;;;4.30;;
18659;SDS011;9459;50.254;19.014;2023-02-02T12:08:31;8.35;;;4.40;;
18659;SDS011;9459;50.254;19.014;2023-02-02T12:11:01;12.30;;;5.70;;
18659;SDS011;9459;50.254;19.014;2023-02-02T12:13:36;10.38;;;6.03;;
18659;SDS011;9459;50.254;19.014;2023-02-02T12:19:15;11.10;;;5.95;;
18659;SDS011;9459;50.254;19.014;2023-02-02T12:21:52;18.58;;;9.23;;
18659;SDS011;9459;50.254;19.014;2023-02-02T12:24:28;15.35;;;6.93;;
18659;SDS011;9459;50.254;19.014;2023-02-02T12:27:03;17.48;;;8.20;;
18659;SDS011;9459;50.254;19.014;2023-02-02T12:29:42;13.05;;;6.28;;
18659;SDS011;9459;50.254;19.014;2023-02-02T12:32:19;14.70;;;6.50;;
18659;SDS011;9459;50.254;19.014;2023-02-02T12:34:56;14.68;;;5.53;;
18659;SDS011;9459;50.254;19.014;2023-02-02T12:37:32;17.52;;;7.88;;
18659;SDS011;9459;50.254;19.014;2023-02-02T12:40:14;18.02;;;8.95;;
18659;SDS011;9459;50.254;19.014;2023-02-02T12:42:59;14.48;;;8.00;;
18659;SDS011;9459;50.254;19.014;2023-02-02T12:45:38;14.13;;;7.83;;
18659;SDS011;9459;50.254;19.014;2023-02-02T12:48:21;13.40;;;7.70;;
18659;SDS011;9459;50.254;19.014;2023-02-02T12:50:59;17.17;;;8.80;;
18659;SDS011;9459;50.254;19.014;2023-02-02T12:53:37;18.23;;;10.95;;
18659;SDS011;9459;50.254;19.014;2023-02-02T12:56:33;15.80;;;8.00;;
18659;SDS011;9459;50.254;19.014;2023-02-02T12:59:08;22.77;;;13.57;;
18659;SDS011;9459;50.254;19.014;2023-02-02T13:01:45;13.75;;;8.02;;
18659;SDS011;9459;50.254;19.014;2023-02-02T13:04:26;19.58;;;9.77;;
18659;SDS011;9459;50.254;19.014;2023-02-02T13:07:25;15.48;;;7.50;;
18659;SDS011;9459;50.254;19.014;2023-02-02T13:10:00;12.90;;;7.50;;
18659;SDS011;9459;50.254;19.014;2023-02-02T13:12:35;9.82;;;6.78;;
18659;SDS011;9459;50.254;19.014;2023-02-02T13:15:08;11.20;;;5.65;;
18659;SDS011;9459;50.254;19.014;2023-02-02T13:17:41;14.70;;;10.20;;
18659;SDS011;9459;50.254;19.014;2023-02-02T13:20:15;20.48;;;10.80;;
18659;SDS011;9459;50.254;19.014;2023-02-02T13:22:49;28.83;;;18.77;;
18659;SDS011;9459;50.254;19.014;2023-02-02T13:25:21;18.83;;;10.88;;
18659;SDS011;9459;50.254;19.014;2023-02-02T13:27:52;17.08;;;8.75;;
18659;SDS011;9459;50.254;19.014;2023-02-02T13:30:26;16.00;;;8.82;;
18659;SDS011;9459;50.254;19.014;2023-02-02T13:32:57;16.92;;;9.32;;
18659;SDS011;9459;50.254;19.014;2023-02-02T13:38:00;17.65;;;9.57;;
18659;SDS011;9459;50.254;19.014;2023-02-02T13:40:33;14.32;;;8.43;;
18659;SDS011;9459;50.254;19.014;2023-02-02T13:43:05;26.90;;;15.35;;
18659;SDS011;9459;50.254;19.014;2023-02-02T13:45:54;19.67;;;9.00;;
18659;SDS011;9459;50.254;19.014;2023-02-02T13:48:31;28.08;;;15.85;;
18659;SDS011;9459;50.254;19.014;2023-02-02T13:54:16;18.35;;;11.82;;
18659;SDS011;9459;50.254;19.014;2023-02-02T13:57:14;19.83;;;12.18;;
18659;SDS011;9459;50.254;19.014;2023-02-02T13:59:49;16.52;;;7.20;;
18659;SDS011;9459;50.254;19.014;2023-02-02T14:02:23;24.85;;;7.65;;
18659;SDS011;9459;50.254;19.014;2023-02-02T14:04:58;14.20;;;7.38;;
18659;SDS011;9459;50.254;19.014;2023-02-02T14:07:30;17.00;;;7.80;;
18659;SDS011;9459;50.254;19.014;2023-02-02T14:10:06;20.92;;;12.13;;
18659;SDS011;9459;50.254;19.014;2023-02-02T14:12:49;30.77;;;15.70;;
18659;SDS011;9459;50.254;19.014;2023-02-02T14:15:18;18.05;;;9.85;;
18659;SDS011;9459;50.254;19.014;2023-02-02T14:17:49;18.35;;;9.13;;
18659;SDS011;9459;50.254;19.014;2023-02-02T14:26:40;22.08;;;8.50;;
18659;SDS011;9459;50.254;19.014;2023-02-02T14:32:28;21.00;;;9.82;;
18659;SDS011;9459;50.254;19.014;2023-02-02T14:38:03;13.93;;;7.57;;
18659;SDS011;9459;50.254;19.014;2023-02-02T14:40:41;19.67;;;8.73;;
18659;SDS011;9459;50.254;19.014;2023-02-02T14:43:16;13.85;;;8.20;;
18659;SDS011;9459;50.254;19.014;2023-02-02T14:46:25;18.55;;;11.20;;
18659;SDS011;9459;50.254;19.014;2023-02-02T14:49:06;19.33;;;11.18;;
18659;SDS011;9459;50.254;19.014;2023-02-02T14:54:35;25.98;;;14.27;;
18659;SDS011;9459;50.254;19.014;2023-02-02T14:57:18;22.35;;;11.40;;
18659;SDS011;9459;50.254;19.014;2023-02-02T14:59:51;19.25;;;9.57;;
18659;SDS011;9459;50.254;19.014;2023-02-02T15:02:22;17.77;;;8.32;;
18659;SDS011;9459;50.254;19.014;2023-02-02T15:04:52;11.10;;;5.50;;
18659;SDS011;9459;50.254;19.014;2023-02-02T15:08:06;18.73;;;9.18;;
18659;SDS011;9459;50.254;19.014;2023-02-02T15:10:57;17.75;;;7.80;;
18659;SDS011;9459;50.254;19.014;2023-02-02T15:13:27;16.95;;;7.20;;
18659;SDS011;9459;50.254;19.014;2023-02-02T15:16:06;19.83;;;8.65;;
18659;SDS011;9459;50.254;19.014;2023-02-02T15:18:40;26.55;;;13.07;;
18659;SDS011;9459;50.254;19.014;2023-02-02T15:23:41;19.75;;;8.48;;
18659;SDS011;9459;50.254;19.014;2023-02-02T15:26:14;39.67;;;18.80;;
18659;SDS011;9459;50.254;19.014;2023-02-02T15:28:46;28.67;;;16.10;;
18659;SDS011;9459;50.254;19.014;2023-02-02T15:33:46;22.95;;;11.05;;
18659;SDS011;9459;50.254;19.014;2023-02-02T15:38:47;16.48;;;7.60;;
18659;SDS011;9459;50.254;19.014;2023-02-02T15:41:20;15.20;;;7.20;;
18659;SDS011;9459;50.254;19.014;2023-02-02T15:43:50;11.35;;;6.32;;
18659;SDS011;9459;50.254;19.014;2023-02-02T15:46:19;13.70;;;5.97;;
18659;SDS011;9459;50.254;19.014;2023-02-02T15:51:59;12.43;;;6.55;;
18659;SDS011;9459;50.254;19.014;2023-02-02T15:54:31;15.60;;;6.43;;